In Rescue
 
Open Full Screen Window  High Contrast Mode
March 20, 2019 8:14 PM CDT
Weather Information
Wind Direction
  ---
Wind Speed
  00 kt (0 mph)
Wind Gust
  00 kt (0 mph)
Altimeter
30.01 in
Visibility
10 SM
Temperature
03° C
37° F
Dewpoint
-01° C
30° F
Humidity
75%
1hr Rain Fall
00.00 in.
24hr Rain Fall
00.00 in.
Sky Condition
Overcast @ 4,600 ft
Scattered @ 3,600 ft
VFR

METAR KTOB 210114Z AUTO 00000KT 10SM SCT036 OVC046 03/M01 A3001 RMK AO2

FAA Disclaimer: The data displayed is for advisory purposes only and is not to be used for flight planning or operations.